Time;durP1;ratioP1;P1;durP2;ratioP2;P2;SDS_P1;SDS_P2;PMS_P1;PMS_P2;Temp;Humidity;BMP_temperature;BMP_pressure;BME280_temperature;BME280_humidity;BME280_pressure;Samples;Min_cycle;Max_cycle;Signal;HPM_P1;HPM_P2
2021/04/26 00:00:32;;;;;;;4.10;2.53;;;12.60;67.00;20.30;100000.00;;;;5072061;28;20286;-71
2021/04/26 00:02:59;;;;;;;4.70;2.90;;;12.60;66.90;20.20;100001.00;;;;5054813;28;20204;-70
2021/04/26 00:05:26;;;;;;;4.40;2.57;;;12.60;67.00;20.30;100006.00;;;;5053646;28;20472;-70
2021/04/26 00:07:53;;;;;;;5.63;3.37;;;12.60;67.00;20.30;100006.00;;;;5038444;28;20486;-71
2021/04/26 00:10:19;;;;;;;5.53;2.60;;;12.60;67.00;20.30;100009.00;;;;5037895;28;20469;-70
2021/04/26 00:12:45;;;;;;;4.53;2.90;;;12.60;67.00;20.50;100013.00;;;;5071007;28;20463;-71
2021/04/26 00:15:18;;;;;;;4.27;2.40;;;12.50;67.00;20.20;100008.00;;;;5071054;28;20190;-70
2021/04/26 00:17:45;;;;;;;4.60;2.40;;;12.50;67.00;20.20;100011.00;;;;5055093;28;20487;-71
2021/04/26 00:20:11;;;;;;;4.90;2.67;;;12.60;67.10;20.10;100013.00;;;;5070992;28;20449;-70
2021/04/26 00:22:37;;;;;;;4.50;2.33;;;12.60;67.10;20.20;100003.00;;;;5054344;28;20459;-70
2021/04/26 00:25:06;;;;;;;5.13;3.07;;;12.50;67.20;20.20;100010.00;;;;5072029;28;20588;-71
2021/04/26 00:27:35;;;;;;;4.40;2.57;;;12.50;67.10;20.40;100003.00;;;;5071078;28;20276;-71
2021/04/26 00:30:04;;;;;;;4.60;2.70;;;12.50;67.20;20.30;100009.00;;;;5037791;28;20428;-70
2021/04/26 00:32:30;;;;;;;5.67;3.30;;;12.50;67.30;20.30;100001.00;;;;5038237;28;20486;-71
2021/04/26 00:34:55;;;;;;;4.60;2.70;;;12.50;67.40;20.20;99995.00;;;;5037033;28;20418;-71
2021/04/26 00:37:21;;;;;;;5.50;2.70;;;12.50;67.20;20.20;99996.00;;;;5070603;28;20662;-71
2021/04/26 00:39:47;;;;;;;4.50;2.70;;;12.50;67.30;20.20;99997.00;;;;5070542;28;20224;-70
2021/04/26 00:42:13;;;;;;;4.43;2.70;;;12.50;67.30;20.30;100002.00;;;;5053744;28;20292;-71
2021/04/26 00:44:39;;;;;;;4.60;2.70;;;12.50;67.40;20.40;100012.00;;;;5071741;28;20204;-70
2021/04/26 00:47:04;;;;;;;5.40;2.90;;;12.50;67.30;20.10;100009.00;;;;5053533;28;20343;-71
2021/04/26 00:49:30;;;;;;;5.67;3.17;;;12.50;67.60;20.30;99980.00;;;;5070932;28;20458;-71
2021/04/26 00:51:56;;;;;;;5.20;2.57;;;12.50;67.50;20.10;100010.00;;;;5034975;28;20205;-70
2021/04/26 00:54:21;;;;;;;4.53;2.57;;;12.50;67.50;20.10;100011.00;;;;5071718;28;20674;-71
2021/04/26 00:56:47;;;;;;;4.23;2.57;;;12.50;67.50;20.20;100003.00;;;;5071006;28;20197;-70
2021/04/26 00:59:13;;;;;;;4.90;2.73;;;12.50;67.50;20.10;100008.00;;;;5070053;28;20849;-72
2021/04/26 01:01:38;;;;;;;5.17;2.80;;;12.50;67.60;20.10;100015.00;;;;5036560;28;20292;-71
2021/04/26 01:04:04;;;;;;;4.60;2.93;;;12.50;67.60;20.20;99998.00;;;;5071679;28;20269;-71
2021/04/26 01:06:30;;;;;;;5.97;3.10;;;12.50;67.60;20.20;100008.00;;;;5036141;28;20201;-71
2021/04/26 01:08:56;;;;;;;4.53;2.77;;;12.50;67.60;20.20;99992.00;;;;5069737;28;20442;-71
2021/04/26 01:11:25;;;;;;;5.40;2.63;;;12.40;67.60;20.00;100008.00;;;;5036208;28;20209;-71
2021/04/26 01:14:03;;;;;;;4.13;2.47;;;12.40;67.40;20.00;100001.00;;;;5020720;28;20185;-70
2021/04/26 01:16:46;;;;;;;4.80;2.60;;;12.40;67.40;20.10;100002.00;;;;5069039;28;20877;-70
2021/04/26 01:19:30;;;;;;;4.63;2.47;;;12.40;67.40;20.00;100011.00;;;;5038737;28;20479;-71
2021/04/26 01:22:36;;;;;;;4.60;2.60;;;12.40;67.60;19.90;100004.00;;;;5053057;28;20501;-71
2021/04/26 01:25:25;;;;;;;4.43;2.60;;;12.40;67.50;19.70;100001.00;;;;5057027;28;20580;-71
2021/04/26 01:28:23;;;;;;;4.50;2.40;;;12.40;67.60;19.80;100001.00;;;;5055614;28;20448;-71
2021/04/26 01:31:15;;;;;;;4.63;2.53;;;12.40;67.70;20.00;100005.00;;;;5070908;28;20451;-72
2021/04/26 01:33:46;;;;;;;5.03;2.70;;;12.40;67.70;19.80;99988.00;;;;5052979;28;20471;-70
2021/04/26 01:36:17;;;;;;;4.57;2.30;;;12.40;67.60;19.90;99994.00;;;;5036188;28;20586;-70
2021/04/26 01:38:43;;;;;;;4.90;2.53;;;12.40;67.70;19.90;100003.00;;;;5036172;28;20933;-70
2021/04/26 01:41:10;;;;;;;4.80;2.70;;;12.40;67.70;19.80;99999.00;;;;5052802;28;20423;-71
2021/04/26 01:43:37;;;;;;;4.90;2.67;;;12.40;67.70;19.80;99998.00;;;;5036650;28;20431;-71
2021/04/26 01:46:06;;;;;;;5.13;2.93;;;12.40;67.70;19.80;99997.00;;;;5052606;28;20444;-71
2021/04/26 01:48:34;;;;;;;4.73;2.47;;;12.40;67.90;20.00;99996.00;;;;5036521;28;21005;-70
2021/04/26 01:51:00;;;;;;;3.93;2.27;;;12.40;67.70;19.90;99994.00;;;;5052290;28;20699;-70
2021/04/26 01:53:26;;;;;;;4.93;2.90;;;12.40;67.80;19.90;100010.00;;;;5036178;28;20437;-72
2021/04/26 01:55:57;;;;;;;4.40;2.50;;;12.30;67.80;20.20;99996.00;;;;5052298;28;20423;-70
2021/04/26 01:58:23;;;;;;;5.33;2.67;;;12.30;67.80;20.00;99995.00;;;;5035955;28;20455;-71
2021/04/26 02:00:48;;;;;;;5.10;3.03;;;12.30;67.80;19.70;100001.00;;;;5052317;28;20481;-71
2021/04/26 02:03:14;;;;;;;4.43;2.50;;;12.30;67.70;19.80;99993.00;;;;5035735;28;20433;-71
2021/04/26 02:05:40;;;;;;;4.13;2.53;;;12.30;67.80;19.70;99994.00;;;;5052618;28;20206;-71
2021/04/26 02:08:06;;;;;;;3.90;2.30;;;12.30;68.00;19.70;99989.00;;;;5034859;28;20246;-72
2021/04/26 02:10:32;;;;;;;5.03;2.50;;;12.30;67.70;19.90;99998.00;;;;5052756;28;20189;-70
2021/04/26 02:12:58;;;;;;;4.30;2.30;;;12.30;68.00;19.70;99981.00;;;;5050897;28;20459;-71
2021/04/26 02:15:26;;;;;;;4.13;2.27;;;12.20;67.80;19.70;100001.00;;;;5035900;28;20955;-72
2021/04/26 02:17:52;;;;;;;4.57;2.13;;;12.30;67.90;19.70;99999.00;;;;5052319;28;21011;-72
2021/04/26 02:20:18;;;;;;;4.57;2.50;;;12.30;68.10;19.80;99999.00;;;;5035713;28;20474;-72
2021/04/26 02:22:47;;;;;;;4.80;2.10;;;12.30;67.80;19.70;99990.00;;;;5033854;28;20204;-70
2021/04/26 02:25:14;;;;;;;4.67;2.50;;;12.30;68.00;19.80;99990.00;;;;5052924;28;20423;-71
2021/04/26 02:27:39;;;;;;;4.60;2.70;;;12.30;68.10;19.70;99979.00;;;;5068101;28;20535;-71
2021/04/26 02:30:06;;;;;;;4.30;2.50;;;12.20;67.90;19.90;99964.00;;;;5068626;28;20481;-70
2021/04/26 02:33:05;;;;;;;4.00;2.33;;;12.20;67.90;19.80;99992.00;;;;5067967;28;20893;-70
2021/04/26 02:35:38;;;;;;;5.00;2.73;;;12.20;67.80;19.60;99989.00;;;;5070419;28;20450;-72
2021/04/26 02:38:24;;;;;;;5.20;2.40;;;12.20;67.80;19.50;99977.00;;;;5069078;28;20456;-71
2021/04/26 02:40:52;;;;;;;4.60;2.90;;;12.20;68.00;19.70;99969.00;;;;5038129;28;20520;-72
2021/04/26 02:43:18;;;;;;;4.87;2.60;;;12.20;67.80;19.70;99979.00;;;;5051263;28;20460;-71
2021/04/26 02:45:49;;;;;;;4.43;2.40;;;12.20;68.10;19.50;99982.00;;;;5035523;28;20821;-71
2021/04/26 02:48:15;;;;;;;4.83;2.50;;;12.20;68.10;19.50;99969.00;;;;5069664;28;20204;-71
2021/04/26 02:50:41;;;;;;;4.63;3.00;;;12.20;68.20;19.50;99975.00;;;;5035700;28;20435;-70
2021/04/26 02:53:06;;;;;;;4.40;2.37;;;12.20;68.20;19.50;99972.00;;;;5050901;28;20462;-70
2021/04/26 02:55:32;;;;;;;4.90;2.70;;;12.20;68.00;19.70;99972.00;;;;5018960;28;20547;-70
2021/04/26 02:57:58;;;;;;;4.47;2.23;;;12.20;68.10;19.70;99968.00;;;;5035205;28;20205;-70
2021/04/26 03:00:24;;;;;;;4.70;2.83;;;12.20;68.30;19.60;99965.00;;;;5068478;28;20216;-70
2021/04/26 03:02:50;;;;;;;5.10;2.80;;;12.20;68.30;19.60;99956.00;;;;5068033;28;20276;-70
2021/04/26 03:05:17;;;;;;;4.20;2.57;;;12.10;68.20;19.70;99969.00;;;;5034796;28;20435;-71
2021/04/26 03:07:44;;;;;;;4.97;2.83;;;12.10;67.90;19.50;99958.00;;;;5051310;28;20444;-69
2021/04/26 03:10:13;;;;;;;4.87;2.50;;;12.10;68.00;19.80;99952.00;;;;5018746;28;20442;-69
2021/04/26 03:12:42;;;;;;;4.97;2.50;;;12.10;68.40;19.30;99959.00;;;;5051384;28;20923;-69
2021/04/26 03:15:10;;;;;;;4.17;2.60;;;12.10;68.40;19.60;99962.00;;;;5035695;28;20546;-69
2021/04/26 03:17:37;;;;;;;3.93;2.33;;;12.10;68.30;19.40;99956.00;;;;5051504;28;20529;-69
2021/04/26 03:20:08;;;;;;;4.77;2.73;;;12.10;68.10;19.40;99953.00;;;;5051623;28;20499;-70
2021/04/26 03:22:34;;;;;;;4.33;2.40;;;12.10;68.30;19.40;99949.00;;;;5018150;28;20999;-70
2021/04/26 03:25:00;;;;;;;4.93;2.60;;;12.10;68.30;19.40;99948.00;;;;5055264;28;20438;-70
2021/04/26 03:27:25;;;;;;;4.63;2.37;;;12.10;68.20;19.40;99954.00;;;;5038313;28;20280;-71
2021/04/26 03:29:52;;;;;;;4.97;2.50;;;12.10;68.10;19.60;99962.00;;;;5072136;28;20196;-72
2021/04/26 03:32:18;;;;;;;4.67;2.67;;;12.10;68.30;19.40;99958.00;;;;5038379;28;20212;-70
2021/04/26 03:34:44;;;;;;;4.50;2.77;;;12.10;68.30;19.50;99961.00;;;;5071911;28;20457;-70
2021/04/26 03:37:16;;;;;;;5.23;2.37;;;12.10;68.40;19.50;99959.00;;;;5038302;28;20205;-70
2021/04/26 03:39:45;;;;;;;5.60;2.73;;;12.10;68.40;19.50;99954.00;;;;5072111;28;21067;-69
2021/04/26 03:42:15;;;;;;;4.40;2.47;;;12.00;68.60;19.40;99957.00;;;;5038089;28;20459;-70
2021/04/26 03:44:45;;;;;;;4.87;2.70;;;12.00;68.40;19.50;99950.00;;;;5055046;28;20427;-69
2021/04/26 03:47:11;;;;;;;5.57;2.60;;;12.00;68.40;19.40;99962.00;;;;5054669;28;20507;-70
2021/04/26 03:49:37;;;;;;;5.30;2.30;;;12.00;68.50;19.30;99949.00;;;;5038387;28;20435;-71
2021/04/26 03:52:04;;;;;;;5.80;2.33;;;12.00;68.30;19.40;99951.00;;;;5071152;28;20280;-70
2021/04/26 03:54:30;;;;;;;4.30;2.33;;;12.00;68.30;19.40;99949.00;;;;5071233;28;20177;-71
2021/04/26 03:56:55;;;;;;;4.43;2.40;;;12.00;68.50;19.40;99941.00;;;;5037675;28;20524;-70
2021/04/26 03:59:21;;;;;;;4.60;2.57;;;12.00;68.40;19.20;99942.00;;;;5037781;28;20242;-70
2021/04/26 04:01:48;;;;;;;4.47;2.63;;;12.00;68.40;19.30;99920.00;;;;5054521;28;20610;-70
2021/04/26 04:04:13;;;;;;;4.80;2.67;;;12.00;68.40;19.20;99939.00;;;;5054680;28;20174;-70
2021/04/26 04:06:39;;;;;;;5.27;2.63;;;12.00;68.30;19.40;99944.00;;;;5038672;28;20486;-70
2021/04/26 04:09:06;;;;;;;3.60;2.00;;;12.00;68.60;19.30;99933.00;;;;5071070;28;20181;-71
2021/04/26 04:11:31;;;;;;;5.30;2.60;;;12.00;68.60;19.40;99941.00;;;;5071296;28;20204;-71
2021/04/26 04:13:57;;;;;;;4.90;2.83;;;12.00;68.50;19.40;99922.00;;;;5071119;28;20431;-70
2021/04/26 04:16:23;;;;;;;5.47;3.60;;;12.00;68.60;19.40;99929.00;;;;5072679;28;20236;-71
2021/04/26 04:18:49;;;;;;;5.40;2.90;;;12.00;68.50;19.40;99941.00;;;;5070683;28;20302;-71
2021/04/26 04:21:15;;;;;;;5.43;3.03;;;11.90;68.60;19.40;99940.00;;;;5071551;28;20227;-70
2021/04/26 04:23:41;;;;;;;5.20;3.00;;;11.90;68.40;19.40;99945.00;;;;5069588;28;20414;-70
2021/04/26 04:26:07;;;;;;;4.70;2.77;;;11.90;68.50;19.50;99937.00;;;;5037822;28;20238;-70
2021/04/26 04:28:33;;;;;;;4.60;2.83;;;11.90;68.60;19.30;99936.00;;;;5070922;28;20208;-70
2021/04/26 04:30:59;;;;;;;4.80;2.77;;;11.90;68.60;19.30;99937.00;;;;5037689;28;20402;-71
2021/04/26 04:33:25;;;;;;;4.63;2.70;;;11.90;68.80;19.50;99924.00;;;;5069913;28;20233;-70
2021/04/26 04:35:50;;;;;;;5.30;3.10;;;11.90;68.80;19.40;99927.00;;;;5053445;28;20559;-71
2021/04/26 04:38:16;;;;;;;5.53;2.70;;;11.90;68.70;19.40;99926.00;;;;5069875;28;20193;-71
2021/04/26 04:40:42;;;;;;;4.87;2.90;;;11.90;68.70;19.40;99936.00;;;;5054106;28;20494;-70
2021/04/26 04:43:08;;;;;;;4.60;3.10;;;11.90;68.80;19.50;99915.00;;;;5053888;28;20433;-69
2021/04/26 04:45:33;;;;;;;4.37;2.43;;;11.90;68.60;19.40;99915.00;;;;5071920;28;20231;-70
2021/04/26 04:47:59;;;;;;;4.60;2.80;;;11.90;68.80;19.30;99922.00;;;;5053527;28;20644;-69
2021/04/26 04:50:25;;;;;;;4.50;2.70;;;11.90;68.60;19.30;99929.00;;;;5070155;28;20188;-69
2021/04/26 04:52:51;;;;;;;4.93;2.83;;;11.90;68.60;19.30;99932.00;;;;5070113;28;20221;-70
2021/04/26 04:55:16;;;;;;;4.87;3.00;;;11.90;68.80;19.30;99925.00;;;;5054277;28;20261;-70
2021/04/26 04:57:42;;;;;;;5.30;2.90;;;11.90;68.90;19.30;99894.00;;;;5036842;28;20510;-69
2021/04/26 05:00:08;;;;;;;4.93;2.80;;;11.90;68.90;19.10;99930.00;;;;5070119;28;20208;-70
2021/04/26 05:02:34;;;;;;;5.10;2.53;;;11.90;68.90;19.20;99940.00;;;;5053409;28;20205;-69
2021/04/26 05:05:00;;;;;;;4.70;2.40;;;11.90;69.00;19.20;99935.00;;;;5071201;28;20662;-70
2021/04/26 05:07:25;;;;;;;5.33;3.20;;;11.90;69.00;19.10;99938.00;;;;5053282;28;20209;-69
2021/04/26 05:09:51;;;;;;;5.87;3.00;;;11.90;69.00;19.20;99931.00;;;;5070203;28;20189;-70
2021/04/26 05:12:17;;;;;;;4.80;2.70;;;11.90;69.10;19.30;99937.00;;;;5071174;28;20209;-69
2021/04/26 05:14:45;;;;;;;4.53;2.77;;;11.90;69.10;19.10;99947.00;;;;5069292;28;20280;-71
2021/04/26 05:17:11;;;;;;;4.97;2.60;;;11.90;69.20;19.10;99911.00;;;;5070212;28;20201;-69
2021/04/26 05:19:37;;;;;;;5.17;3.10;;;11.80;69.00;19.30;99936.00;;;;5035738;28;20482;-71
2021/04/26 05:22:03;;;;;;;4.93;2.80;;;11.80;69.10;19.10;99929.00;;;;5070115;28;20658;-70
2021/04/26 05:24:30;;;;;;;4.77;2.90;;;11.80;69.00;19.30;99927.00;;;;5069502;28;20459;-70
2021/04/26 05:26:55;;;;;;;4.90;2.85;;;11.80;69.00;19.10;99925.00;;;;5036968;28;20209;-70
2021/04/26 05:29:21;;;;;;;4.50;2.50;;;11.80;69.20;19.10;99926.00;;;;5069444;28;20193;-69
2021/04/26 05:31:47;;;;;;;4.43;2.83;;;11.80;69.10;19.10;99931.00;;;;5053290;28;20223;-70
2021/04/26 05:34:12;;;;;;;4.90;2.77;;;11.80;69.10;19.10;99921.00;;;;5070739;28;20316;-70
2021/04/26 05:36:38;;;;;;;4.40;2.60;;;11.80;69.10;19.30;99923.00;;;;5070751;28;20201;-70
2021/04/26 05:39:04;;;;;;;4.53;2.80;;;11.80;69.10;19.20;99918.00;;;;5069138;28;20670;-70
2021/04/26 05:41:34;;;;;;;4.97;2.90;;;11.80;69.10;19.00;99917.00;;;;5037061;28;20283;-71
2021/04/26 05:44:00;;;;;;;5.50;3.23;;;11.80;69.10;19.10;99924.00;;;;5036392;28;20443;-71
2021/04/26 05:46:26;;;;;;;4.83;2.83;;;11.80;69.20;19.00;99920.00;;;;5051911;28;21053;-69
2021/04/26 05:48:53;;;;;;;4.50;2.50;;;11.80;69.30;19.10;99919.00;;;;5036186;28;20985;-69
2021/04/26 05:51:18;;;;;;;4.67;2.70;;;11.80;69.20;19.00;99926.00;;;;5036301;28;20451;-70
2021/04/26 05:53:44;;;;;;;4.93;2.50;;;11.80;70.10;19.00;99910.00;;;;5069854;28;20450;-71
2021/04/26 05:56:10;;;;;;;4.97;2.77;;;11.80;69.40;19.10;99909.00;;;;5036261;28;20185;-70
2021/04/26 05:58:35;;;;;;;4.47;2.43;;;11.80;69.40;19.10;99915.00;;;;5069417;28;20700;-70
2021/04/26 06:01:01;;;;;;;4.83;2.70;;;11.80;69.40;19.20;99907.00;;;;5068933;28;20230;-70
2021/04/26 06:03:27;;;;;;;4.90;2.30;;;11.80;69.40;19.00;99917.00;;;;5036069;28;20613;-71
2021/04/26 06:05:53;;;;;;;4.40;2.50;;;11.80;69.50;19.20;99901.00;;;;5069980;28;20239;-69
2021/04/26 06:08:19;;;;;;;4.70;2.60;;;11.80;69.50;19.20;99903.00;;;;5052146;28;20554;-70
2021/04/26 06:10:45;;;;;;;4.50;2.70;;;11.80;69.50;19.20;99904.00;;;;5052071;28;20444;-69
2021/04/26 06:13:11;;;;;;;4.80;2.40;;;11.80;69.60;19.30;99918.00;;;;5052732;28;20209;-70
2021/04/26 06:15:37;;;;;;;5.20;3.10;;;11.80;69.60;19.30;99909.00;;;;5051695;28;20439;-70
2021/04/26 06:18:17;;;;;;;4.60;2.70;;;11.80;69.60;19.20;99918.00;;;;5070141;28;20554;-70
2021/04/26 06:20:45;;;;;;;4.90;2.80;;;11.80;69.60;19.20;99915.00;;;;5052735;28;20314;-70
2021/04/26 06:23:11;;;;;;;4.60;2.70;;;11.80;69.70;19.00;99921.00;;;;5050546;28;20465;-70
2021/04/26 06:25:42;;;;;;;4.20;2.40;;;11.80;69.80;19.10;99906.00;;;;5066307;28;20452;-70
2021/04/26 06:28:08;;;;;;;4.27;2.63;;;11.80;69.80;19.20;99916.00;;;;5037094;28;20213;-70
2021/04/26 06:30:34;;;;;;;5.10;3.10;;;11.80;69.80;19.20;99910.00;;;;5051294;28;20801;-70
2021/04/26 06:33:00;;;;;;;5.10;2.60;;;11.80;69.80;19.20;99909.00;;;;5049352;28;20472;-70
2021/04/26 06:35:26;;;;;;;4.90;2.87;;;11.80;69.90;19.20;99915.00;;;;5067933;28;20843;-70
2021/04/26 06:37:52;;;;;;;4.87;2.60;;;11.80;69.90;19.10;99902.00;;;;5067225;28;20201;-70
2021/04/26 06:40:17;;;;;;;4.70;2.87;;;11.80;70.80;19.30;99915.00;;;;5050542;28;20446;-70
2021/04/26 06:42:43;;;;;;;4.47;2.37;;;11.70;69.90;19.30;99915.00;;;;5066970;28;20494;-69
2021/04/26 06:45:10;;;;;;;4.77;2.70;;;11.80;70.00;19.20;99915.00;;;;5068479;28;20708;-70
2021/04/26 06:47:36;;;;;;;5.20;2.45;;;11.80;70.00;19.30;99910.00;;;;5034265;28;20534;-69
2021/04/26 06:50:03;;;;;;;4.50;2.40;;;11.80;70.00;19.20;99910.00;;;;5050802;28;20205;-70
2021/04/26 06:52:29;;;;;;;5.80;2.70;;;11.70;70.00;19.00;99924.00;;;;5067822;28;20462;-70
2021/04/26 06:54:54;;;;;;;4.43;2.33;;;11.80;70.10;19.10;99914.00;;;;5068652;28;20610;-70
2021/04/26 06:57:20;;;;;;;4.70;2.60;;;11.70;70.00;19.20;99917.00;;;;5067891;28;20284;-70
2021/04/26 06:59:46;;;;;;;4.17;2.50;;;11.80;70.10;19.10;99910.00;;;;5038510;28;20249;-70
2021/04/26 07:02:12;;;;;;;5.13;2.10;;;11.70;70.00;19.00;99918.00;;;;5022923;28;20266;-70
2021/04/26 07:04:38;;;;;;;4.30;2.77;;;11.70;70.10;19.30;99916.00;;;;5073199;28;20177;-71
2021/04/26 07:07:03;;;;;;;4.13;2.20;;;11.70;70.10;19.30;99903.00;;;;5055955;28;21054;-69
2021/04/26 07:09:29;;;;;;;4.30;2.67;;;11.70;70.10;19.30;99916.00;;;;5072149;28;20184;-70
2021/04/26 07:11:57;;;;;;;4.40;2.43;;;11.80;70.20;19.30;99915.00;;;;5071708;28;20895;-70
2021/04/26 07:14:23;;;;;;;6.63;2.80;;;11.80;70.30;19.30;99907.00;;;;5072199;28;20173;-71
2021/04/26 07:16:49;;;;;;;4.47;2.47;;;11.70;70.10;19.20;99905.00;;;;5073453;28;20537;-70
2021/04/26 07:19:15;;;;;;;5.03;2.63;;;11.70;70.10;19.30;99902.00;;;;5055639;28;20543;-71
2021/04/26 07:21:41;;;;;;;4.60;2.40;;;11.80;70.30;19.30;99900.00;;;;5054856;28;20201;-70
2021/04/26 07:24:07;;;;;;;4.53;2.50;;;11.70;70.10;19.30;99897.00;;;;5038623;28;20188;-70
2021/04/26 07:26:33;;;;;;;4.47;2.50;;;11.70;70.20;19.30;99905.00;;;;5054739;28;20445;-71
2021/04/26 07:28:58;;;;;;;4.40;2.50;;;11.70;70.20;19.30;99902.00;;;;5055304;28;20921;-70
2021/04/26 07:31:24;;;;;;;5.30;2.60;;;11.70;70.20;19.30;99909.00;;;;5055004;28;20674;-70
2021/04/26 07:33:50;;;;;;;4.23;2.33;;;11.80;70.30;19.40;99901.00;;;;5038384;28;20402;-70
2021/04/26 07:36:16;;;;;;;5.03;2.50;;;11.80;70.40;19.40;99911.00;;;;5071488;28;20256;-71
2021/04/26 07:38:41;;;;;;;5.10;2.30;;;11.70;70.30;19.50;99901.00;;;;5071206;28;20218;-70
2021/04/26 07:41:07;;;;;;;4.10;2.40;;;11.80;70.40;19.20;99903.00;;;;5072773;28;20177;-71
2021/04/26 07:43:33;;;;;;;4.27;2.20;;;11.70;70.30;19.30;99901.00;;;;5071946;28;20181;-70
2021/04/26 07:45:59;;;;;;;4.40;2.60;;;11.70;70.30;19.20;99894.00;;;;5037850;28;20185;-70
2021/04/26 07:48:24;;;;;;;4.17;2.37;;;11.80;70.40;19.30;99897.00;;;;5073037;28;20200;-70
2021/04/26 07:50:50;;;;;;;3.97;2.30;;;11.80;70.50;19.20;99890.00;;;;5072603;28;20693;-71
2021/04/26 07:53:16;;;;;;;4.50;2.30;;;11.80;70.50;19.20;99890.00;;;;5058564;28;20288;-71
2021/04/26 07:55:42;;;;;;;4.53;1.97;;;11.80;70.50;19.40;99894.00;;;;5056992;28;20189;-70
2021/04/26 07:58:07;;;;;;;4.07;2.23;;;11.80;70.50;18.90;99888.00;;;;5066100;28;20498;-70
2021/04/26 08:00:33;;;;;;;4.73;2.60;;;11.80;70.50;19.40;99889.00;;;;5050600;28;20483;-70
2021/04/26 08:02:59;;;;;;;4.37;2.20;;;11.80;70.50;19.30;99895.00;;;;5047858;28;20206;-70
2021/04/26 08:05:25;;;;;;;4.60;2.40;;;11.80;70.50;19.40;99878.00;;;;5051448;28;20179;-72
2021/04/26 08:07:51;;;;;;;4.17;2.10;;;11.70;70.40;19.40;99897.00;;;;5033937;28;20240;-70
2021/04/26 08:10:16;;;;;;;4.27;2.40;;;11.80;70.50;19.30;99885.00;;;;5051340;28;20436;-70
2021/04/26 08:12:42;;;;;;;5.40;2.70;;;11.80;70.60;19.50;99888.00;;;;5051459;28;20226;-71
2021/04/26 08:15:09;;;;;;;4.80;2.27;;;11.80;70.50;19.30;99890.00;;;;5067460;28;20182;-72
2021/04/26 08:17:36;;;;;;;4.60;2.63;;;11.80;70.50;19.30;99875.00;;;;5017486;28;20568;-71
2021/04/26 08:20:03;;;;;;;4.50;2.37;;;11.80;70.60;19.20;99876.00;;;;5051286;28;20522;-71
2021/04/26 08:22:29;;;;;;;4.37;2.73;;;11.80;70.60;19.30;99879.00;;;;5033967;28;20474;-70
2021/04/26 08:24:55;;;;;;;3.80;2.00;;;11.80;71.40;19.30;99880.00;;;;5037908;28;20841;-72
2021/04/26 08:27:20;;;;;;;4.10;1.90;;;11.80;70.60;19.20;99861.00;;;;5069921;28;20656;-70
2021/04/26 08:29:46;;;;;;;4.60;2.60;;;11.80;70.60;19.30;99871.00;;;;5070207;28;20182;-70
2021/04/26 08:32:12;;;;;;;3.73;1.77;;;11.80;70.60;19.20;99863.00;;;;5052774;28;20262;-70
2021/04/26 08:34:38;;;;;;;4.50;2.23;;;11.80;70.60;19.30;99870.00;;;;5053914;28;20864;-71
2021/04/26 08:37:04;;;;;;;3.83;2.33;;;11.80;70.60;19.40;99863.00;;;;5070073;28;20597;-70
2021/04/26 08:39:29;;;;;;;4.20;1.80;;;11.80;70.80;19.40;99855.00;;;;5069046;28;20209;-71
2021/04/26 08:41:55;;;;;;;4.33;2.10;;;11.80;70.70;19.40;99859.00;;;;5053400;28;20258;-70
2021/04/26 08:44:21;;;;;;;5.43;2.70;;;11.80;70.80;19.40;99860.00;;;;5069760;28;20185;-71
2021/04/26 08:46:47;;;;;;;4.00;2.00;;;11.80;70.80;19.40;99852.00;;;;5069022;28;20208;-70
2021/04/26 08:49:15;;;;;;;4.20;1.83;;;11.80;70.80;19.20;99856.00;;;;5071893;28;20650;-70
2021/04/26 08:51:41;;;;;;;5.60;2.40;;;11.80;70.80;19.40;99862.00;;;;5070020;28;20204;-71
2021/04/26 08:54:07;;;;;;;4.77;2.63;;;11.80;70.80;19.30;99851.00;;;;5036135;28;20443;-70
2021/04/26 08:56:34;;;;;;;4.40;2.17;;;11.80;70.80;19.40;99860.00;;;;5052751;28;20618;-71
2021/04/26 08:59:00;;;;;;;3.80;2.10;;;11.80;70.90;19.20;99845.00;;;;5053420;28;20443;-71
2021/04/26 09:01:26;;;;;;;3.77;2.07;;;11.80;70.90;19.30;99864.00;;;;5019979;28;20455;-70
2021/04/26 09:03:52;;;;;;;4.50;2.10;;;11.80;70.90;19.40;99857.00;;;;5053050;28;20817;-71
2021/04/26 09:06:17;;;;;;;4.37;2.10;;;11.80;71.00;19.20;99829.00;;;;5070261;28;20443;-71
2021/04/26 09:08:50;;;;;;;4.17;2.10;;;11.80;70.90;19.30;99855.00;;;;5069839;28;20181;-70
2021/04/26 09:11:15;;;;;;;4.10;2.20;;;11.80;70.90;19.30;99854.00;;;;5051786;28;20332;-71
2021/04/26 09:13:45;;;;;;;4.50;2.40;;;11.80;71.00;19.30;99850.00;;;;5035371;28;20442;-70
2021/04/26 09:16:20;;;;;;;4.93;2.23;;;11.80;71.00;19.30;99850.00;;;;5036264;28;20189;-71
2021/04/26 09:19:07;;;;;;;4.40;2.37;;;11.80;71.00;19.30;99845.00;;;;5037540;28;20436;-71
2021/04/26 09:21:34;;;;;;;3.90;2.17;;;11.80;71.00;19.40;99835.00;;;;5048570;28;20493;-71
2021/04/26 09:24:18;;;;;;;4.70;2.27;;;11.80;71.00;19.30;99837.00;;;;5048707;28;20425;-71
2021/04/26 09:27:06;;;;;;;4.00;2.13;;;11.80;71.00;19.30;99836.00;;;;5049297;28;20452;-72
2021/04/26 09:29:32;;;;;;;3.90;1.90;;;11.80;71.00;19.20;99819.00;;;;5049127;28;20461;-71
2021/04/26 09:32:15;;;;;;;3.90;2.10;;;11.80;71.00;19.30;99812.00;;;;5048364;28;21036;-71
2021/04/26 09:34:48;;;;;;;3.70;1.83;;;11.80;71.00;19.20;99807.00;;;;5048207;28;20522;-72
2021/04/26 09:37:17;;;;;;;3.73;2.00;;;11.80;71.00;19.30;99810.00;;;;5032478;28;20496;-71
2021/04/26 09:40:01;;;;;;;4.60;2.33;;;11.80;71.00;19.50;99803.00;;;;5032382;28;20479;-71
2021/04/26 09:42:57;;;;;;;4.10;2.27;;;11.80;71.10;19.50;99798.00;;;;5048826;28;20456;-71
2021/04/26 09:45:40;;;;;;;4.00;1.90;;;11.80;71.10;19.60;99804.00;;;;5034036;28;20981;-71
2021/04/26 09:48:13;;;;;;;3.80;2.20;;;11.80;71.10;19.20;99805.00;;;;5049402;28;20543;-71
2021/04/26 09:51:06;;;;;;;4.97;2.10;;;11.80;71.10;19.40;99796.00;;;;5049294;28;20408;-72
2021/04/26 09:53:39;;;;;;;3.80;1.90;;;11.80;71.10;19.40;99790.00;;;;5048481;28;20976;-71
2021/04/26 09:56:16;;;;;;;3.63;1.80;;;11.80;71.10;19.30;99790.00;;;;5048848;28;20407;-72
2021/04/26 09:58:44;;;;;;;3.37;1.70;;;11.80;71.10;19.40;99787.00;;;;5032298;28;20425;-71
2021/04/26 10:01:10;;;;;;;4.30;2.27;;;11.80;71.10;19.40;99779.00;;;;5048995;28;20530;-72
2021/04/26 10:03:36;;;;;;;3.97;1.77;;;11.80;71.00;19.50;99775.00;;;;5049366;28;20448;-71
2021/04/26 10:06:02;;;;;;;4.00;2.00;;;11.80;71.10;19.30;99773.00;;;;5033100;28;20464;-71
2021/04/26 10:08:28;;;;;;;4.20;2.10;;;11.80;71.10;19.30;99758.00;;;;5048224;28;20464;-72
2021/04/26 10:10:54;;;;;;;3.80;1.90;;;11.80;71.20;19.30;99780.00;;;;5047754;28;20443;-72
2021/04/26 10:13:21;;;;;;;4.03;2.17;;;11.80;71.20;19.50;99757.00;;;;5031897;28;20452;-71
2021/04/26 10:15:58;;;;;;;3.83;2.07;;;11.80;71.20;19.50;99761.00;;;;5048661;28;20432;-72
2021/04/26 10:18:41;;;;;;;5.10;2.10;;;11.80;71.20;19.50;99751.00;;;;5048388;28;20434;-72
2021/04/26 10:21:19;;;;;;;4.00;2.17;;;11.90;71.30;19.40;99746.00;;;;5048598;28;20472;-71
2021/04/26 10:23:51;;;;;;;3.70;1.60;;;11.80;71.20;19.40;99733.00;;;;5050160;28;20515;-73
2021/04/26 10:26:47;;;;;;;3.77;1.80;;;11.90;71.40;19.30;99731.00;;;;5048604;28;20407;-72
2021/04/26 10:29:31;;;;;;;3.50;1.83;;;11.90;71.40;19.20;99737.00;;;;5048606;28;20408;-72
2021/04/26 10:31:56;;;;;;;3.63;1.77;;;11.90;71.40;19.50;99735.00;;;;5031891;28;20461;-72
2021/04/26 10:34:23;;;;;;;4.10;1.97;;;11.90;71.50;19.30;99723.00;;;;5048330;28;20862;-72
2021/04/26 10:36:53;;;;;;;3.80;1.90;;;11.90;71.50;19.30;99726.00;;;;5048224;28;20213;-72
2021/04/26 10:39:20;;;;;;;4.00;1.90;;;11.90;71.50;19.30;99725.00;;;;5055212;28;20614;-72
2021/04/26 10:41:50;;;;;;;4.40;2.10;;;11.90;71.50;19.50;99721.00;;;;5068435;28;20800;-72
2021/04/26 10:44:38;;;;;;;3.70;1.60;;;11.90;71.50;19.30;99724.00;;;;5068853;28;20443;-72
2021/04/26 10:47:21;;;;;;;4.80;1.97;;;11.90;71.50;19.50;99715.00;;;;5069393;28;20452;-71
2021/04/26 10:49:48;;;;;;;3.80;2.20;;;11.90;71.50;19.40;99714.00;;;;5069020;28;20450;-71
2021/04/26 10:52:29;;;;;;;4.30;2.00;;;11.90;71.50;19.30;99712.00;;;;5067678;28;20438;-72
2021/04/26 10:55:10;;;;;;;3.50;1.70;;;11.90;71.60;19.40;99704.00;;;;5066633;28;20475;-72
2021/04/26 10:57:55;;;;;;;3.80;1.80;;;11.90;71.60;19.40;99699.00;;;;5067903;28;20446;-71